Time;durP1;ratioP1;P1;durP2;ratioP2;P2;SDS_P1;SDS_P2;PMS_P1;PMS_P2;Temp;Humidity;BMP_temperature;BMP_pressure;BME280_temperature;BME280_humidity;BME280_pressure;Samples;Min_cycle;Max_cycle;Signal;HPM_P1;HPM_P2
2022/06/19 00:02:16;;;;;;;;;;;;;;;22.06;48.12;100239.38;4349207;32;19987;-84
2022/06/19 00:04:44;;;;;;;;;;;;;;;22.22;47.26;100240.75;4348889;32;19996;-84
2022/06/19 00:07:11;;;;;;;;;;;;;;;22.20;47.08;100245.19;4352775;32;19983;-84
2022/06/19 00:09:38;;;;;;;;;;;;;;;22.03;47.93;100239.47;4357763;32;19991;-84
2022/06/19 00:12:05;;;;;;;;;;;;;;;21.95;48.21;100244.03;4364256;32;20542;-83
2022/06/19 00:14:34;;;;;;;;;;;;;;;21.79;48.32;100231.25;4341115;32;19992;-83
2022/06/19 00:17:01;;;;;;;;;;;;;;;21.84;48.74;100228.50;4355935;32;20034;-83
2022/06/19 00:19:28;;;;;;;;;;;;;;;22.11;47.66;100229.56;4362399;32;20040;-83
2022/06/19 00:21:54;;;;;;;;;;;;;;;22.09;47.72;100234.03;4332965;33;19984;-83
2022/06/19 00:24:21;;;;;;;;;;;;;;;21.90;48.48;100222.22;4335497;32;20010;-83
2022/06/19 00:26:48;;;;;;;;;;;;;;;21.86;48.76;100223.16;4346771;32;20389;-83
2022/06/19 00:29:15;;;;;;;;;;;;;;;21.87;48.66;100227.56;4334726;33;19983;-83
2022/06/19 00:31:42;;;;;;;;;;;;;;;21.59;49.64;100234.31;4332398;33;20039;-83
2022/06/19 00:34:09;;;;;;;;;;;;;;;21.69;49.17;100219.16;4326441;33;19992;-84
2022/06/19 00:36:36;;;;;;;;;;;;;;;21.77;48.57;100222.50;4325871;33;19994;-83
2022/06/19 00:39:03;;;;;;;;;;;;;;;21.66;48.74;100224.50;4333464;33;20004;-82
2022/06/19 00:41:33;;;;;;;;;;;;;;;21.46;49.54;100226.75;4326817;32;20007;-82
2022/06/19 00:44:04;;;;;;;;;;;;;;;21.58;48.65;100221.19;4326100;33;19972;-83
2022/06/19 00:46:37;;;;;;;;;;;;;;;21.61;48.61;100220.28;4333115;33;19979;-83
2022/06/19 00:49:04;;;;;;;;;;;;;;;21.61;48.19;100215.88;4326602;33;19976;-83
2022/06/19 00:51:31;;;;;;;;;;;;;;;21.68;47.99;100222.72;4349096;32;20035;-82
2022/06/19 00:53:57;;;;;;;;;;;;;;;21.49;48.64;100221.41;4326164;33;20012;-84
2022/06/19 00:56:25;;;;;;;;;;;;;;;21.54;48.13;100211.66;4333633;33;19979;-83
2022/06/19 00:58:51;;;;;;;;;;;;;;;21.54;48.01;100214.28;4325966;33;19989;-83
2022/06/19 01:01:20;;;;;;;;;;;;;;;21.50;48.20;100202.06;4325932;33;20382;-83
2022/06/19 01:03:47;;;;;;;;;;;;;;;21.19;49.78;100210.63;4349344;32;20338;-83
2022/06/19 01:06:14;;;;;;;;;;;;;;;21.29;50.01;100214.78;4325605;33;19996;-83
2022/06/19 01:08:41;;;;;;;;;;;;;;;21.33;49.97;100208.53;4326173;33;20028;-83
2022/06/19 01:11:08;;;;;;;;;;;;;;;21.03;51.27;100217.97;4327141;32;20191;-83
2022/06/19 01:13:36;;;;;;;;;;;;;;;21.21;50.11;100206.16;4354224;32;20040;-83
2022/06/19 01:16:03;;;;;;;;;;;;;;;21.11;50.78;100197.59;4348793;32;20002;-83
2022/06/19 01:18:32;;;;;;;;;;;;;;;21.35;49.86;100203.28;4348599;32;19980;-83
2022/06/19 01:21:00;;;;;;;;;;;;;;;21.35;49.65;100198.88;4348929;32;20072;-83
2022/06/19 01:23:39;;;;;;;;;;;;;;;21.33;49.85;100195.38;4308311;32;19992;-83
2022/06/19 01:26:07;;;;;;;;;;;;;;;21.20;50.30;100199.19;4325416;33;20023;-83
2022/06/19 01:28:54;;;;;;;;;;;;;;;21.09;50.95;100195.91;4355596;32;19987;-84
2022/06/19 01:31:27;;;;;;;;;;;;;;;21.39;49.69;100194.41;4345105;32;20018;-83
2022/06/19 01:34:27;;;;;;;;;;;;;;;21.08;50.61;100194.19;4348780;32;20361;-83
2022/06/19 01:37:13;;;;;;;;;;;;;;;21.08;50.65;100194.19;4345718;32;20365;-83
2022/06/19 01:39:40;;;;;;;;;;;;;;;21.03;51.13;100196.06;4329004;33;19992;-83
2022/06/19 01:42:08;;;;;;;;;;;;;;;21.03;50.64;100196.06;4345001;32;20683;-83
2022/06/19 01:44:35;;;;;;;;;;;;;;;20.87;51.33;100191.09;4363531;32;19980;-83
2022/06/19 01:47:02;;;;;;;;;;;;;;;20.98;51.03;100195.28;4335156;32;19986;-83
2022/06/19 01:49:30;;;;;;;;;;;;;;;21.08;50.82;100191.53;4350055;32;20043;-83
2022/06/19 01:51:57;;;;;;;;;;;;;;;21.26;49.67;100196.41;4325115;33;20002;-83
2022/06/19 01:54:25;;;;;;;;;;;;;;;21.10;50.27;100192.41;4331711;33;20307;-83
2022/06/19 01:56:52;;;;;;;;;;;;;;;20.97;51.11;100185.66;4349469;32;19976;-83
2022/06/19 01:59:20;;;;;;;;;;;;;;;20.93;50.98;100192.75;4348509;32;20282;-83
2022/06/19 02:01:47;;;;;;;;;;;;;;;21.07;50.29;100187.19;4350310;32;20006;-83
2022/06/19 02:04:15;;;;;;;;;;;;;;;20.98;50.65;100185.63;4354609;32;19995;-83
2022/06/19 02:06:43;;;;;;;;;;;;;;;21.07;49.72;100180.16;4327076;32;19972;-83
2022/06/19 02:09:10;;;;;;;;;;;;;;;20.81;51.51;100175.44;4356200;32;20040;-83
2022/06/19 02:11:37;;;;;;;;;;;;;;;20.85;51.25;100166.59;4327163;33;20035;-83
2022/06/19 02:14:04;;;;;;;;;;;;;;;20.59;51.81;100168.88;4331603;32;20014;-84
2022/06/19 02:16:32;;;;;;;;;;;;;;;20.90;50.67;100170.00;4350949;32;20377;-84
2022/06/19 02:18:59;;;;;;;;;;;;;;;20.66;52.12;100167.84;4350354;32;19984;-83
2022/06/19 02:21:39;;;;;;;;;;;;;;;20.63;52.20;100170.56;4335517;32;19979;-83
2022/06/19 02:24:07;;;;;;;;;;;;;;;20.65;51.67;100168.75;4326727;33;20314;-82
2022/06/19 02:26:34;;;;;;;;;;;;;;;20.72;51.40;100167.72;4311059;32;19984;-82
2022/06/19 02:29:01;;;;;;;;;;;;;;;20.83;51.37;100163.09;4328294;33;19998;-82
2022/06/19 02:31:28;;;;;;;;;;;;;;;20.92;50.71;100171.72;4320880;33;19992;-83
2022/06/19 02:33:56;;;;;;;;;;;;;;;20.80;50.96;100173.69;4321067;33;19988;-83
2022/06/19 02:36:35;;;;;;;;;;;;;;;20.86;50.97;100173.56;4328308;33;20035;-83
2022/06/19 02:39:12;;;;;;;;;;;;;;;21.05;49.65;100178.44;4309114;33;19996;-83
2022/06/19 02:41:44;;;;;;;;;;;;;;;21.10;49.43;100176.59;4327002;33;20282;-84
2022/06/19 02:44:11;;;;;;;;;;;;;;;21.18;49.59;100174.66;4291896;33;898765;-84
2022/06/19 02:46:38;;;;;;;;;;;;;;;20.95;50.54;100175.16;4320891;33;19995;-83
2022/06/19 02:49:05;;;;;;;;;;;;;;;20.64;51.87;100177.53;4301940;33;20048;-84
2022/06/19 02:51:32;;;;;;;;;;;;;;;20.51;52.48;100174.28;4308596;33;20338;-84
2022/06/19 02:53:59;;;;;;;;;;;;;;;20.53;52.41;100163.75;4307637;33;20315;-84
2022/06/19 02:56:26;;;;;;;;;;;;;;;20.44;52.31;100164.75;4300268;33;19984;-84
2022/06/19 02:58:53;;;;;;;;;;;;;;;20.61;51.97;100167.06;4297581;33;20646;-83
2022/06/19 03:01:20;;;;;;;;;;;;;;;20.63;51.89;100160.03;4298602;33;20083;-84
2022/06/19 03:03:46;;;;;;;;;;;;;;;20.39;52.63;100162.22;4305534;33;20481;-85
2022/06/19 03:06:14;;;;;;;;;;;;;;;20.42;52.38;100162.16;4305433;33;19980;-84
2022/06/19 03:08:40;;;;;;;;;;;;;;;20.57;51.99;100170.66;4298155;33;19980;-84
2022/06/19 03:11:07;;;;;;;;;;;;;;;20.39;53.21;100156.97;4297894;33;19998;-84
2022/06/19 03:13:34;;;;;;;;;;;;;;;20.68;51.66;100158.19;4298823;33;20287;-84
2022/06/19 03:16:02;;;;;;;;;;;;;;;20.75;51.89;100154.53;4303989;33;20024;-84
2022/06/19 03:18:30;;;;;;;;;;;;;;;20.35;53.84;100150.00;4297273;33;20024;-84
2022/06/19 03:20:57;;;;;;;;;;;;;;;20.56;52.96;100154.03;4297857;33;19980;-84
2022/06/19 03:23:24;;;;;;;;;;;;;;;20.61;52.68;100156.53;4326956;33;20043;-85
2022/06/19 03:25:51;;;;;;;;;;;;;;;20.69;52.25;100152.00;4334928;33;20027;-84
2022/06/19 03:28:18;;;;;;;;;;;;;;;20.58;52.32;100156.59;4354666;32;20534;-84
2022/06/19 03:30:45;;;;;;;;;;;;;;;20.19;53.71;100153.81;4329653;32;19979;-83
2022/06/19 03:33:12;;;;;;;;;;;;;;;20.62;52.40;100142.53;4326742;33;19979;-83
2022/06/19 03:35:39;;;;;;;;;;;;;;;20.69;52.11;100144.12;4326624;33;19972;-84
2022/06/19 03:38:06;;;;;;;;;;;;;;;20.72;51.75;100144.06;4327219;33;20000;-84
2022/06/19 03:40:32;;;;;;;;;;;;;;;20.85;51.58;100148.16;4331336;33;20078;-83
2022/06/19 03:42:59;;;;;;;;;;;;;;;20.77;52.15;100147.47;4330479;32;20031;-84
2022/06/19 03:45:26;;;;;;;;;;;;;;;20.42;53.38;100156.00;4326238;33;19989;-83
2022/06/19 03:47:53;;;;;;;;;;;;;;;20.51;53.56;100149.72;4326954;33;19980;-84
2022/06/19 03:50:20;;;;;;;;;;;;;;;20.68;52.97;100147.66;4326733;33;20411;-84
2022/06/19 03:52:47;;;;;;;;;;;;;;;20.61;53.53;100151.28;4326508;33;20298;-83
2022/06/19 03:55:14;;;;;;;;;;;;;;;20.58;53.32;100157.50;4332942;33;19983;-83
2022/06/19 03:57:42;;;;;;;;;;;;;;;20.88;52.44;100153.38;4327842;32;19988;-84
2022/06/19 04:00:11;;;;;;;;;;;;;;;20.86;52.28;100156.91;4326847;33;20018;-84
2022/06/19 04:02:38;;;;;;;;;;;;;;;21.10;51.85;100145.00;4349770;32;19998;-83
2022/06/19 04:05:05;;;;;;;;;;;;;;;21.05;51.76;100141.59;4349123;32;19986;-83
2022/06/19 04:07:32;;;;;;;;;;;;;;;20.98;52.12;100150.53;4326367;33;20581;-86
2022/06/19 04:09:59;;;;;;;;;;;;;;;21.01;51.61;100140.81;4334521;33;20032;-86
2022/06/19 04:12:26;;;;;;;;;;;;;;;21.17;51.92;100143.97;4326405;33;19983;-85
2022/06/19 04:14:53;;;;;;;;;;;;;;;20.84;53.61;100138.53;4326679;33;20004;-85
2022/06/19 04:17:20;;;;;;;;;;;;;;;20.82;53.27;100150.84;4333791;33;19990;-83
2022/06/19 04:19:48;;;;;;;;;;;;;;;21.03;53.50;100148.69;4326827;33;20377;-83
2022/06/19 04:22:15;;;;;;;;;;;;;;;21.33;50.93;100137.44;4326600;33;19980;-83
2022/06/19 04:24:42;;;;;;;;;;;;;;;21.42;51.80;100140.81;4326226;33;19972;-83
2022/06/19 04:27:09;;;;;;;;;;;;;;;21.54;49.80;100137.88;4327852;33;19984;-83
2022/06/19 04:29:36;;;;;;;;;;;;;;;21.63;49.37;100135.00;4333168;33;20010;-83
2022/06/19 04:32:03;;;;;;;;;;;;;;;21.67;49.29;100126.13;4328908;33;20058;-83
2022/06/19 04:34:30;;;;;;;;;;;;;;;21.79;49.41;100131.09;4326478;33;19990;-83
2022/06/19 04:36:57;;;;;;;;;;;;;;;21.82;49.37;100130.12;4350661;32;19987;-83
2022/06/19 04:39:24;;;;;;;;;;;;;;;21.97;48.73;100131.53;4320300;32;19979;-83
2022/06/19 04:41:52;;;;;;;;;;;;;;;21.95;49.20;100141.22;4311647;33;20002;-84
2022/06/19 04:44:19;;;;;;;;;;;;;;;21.93;50.82;100143.06;4317825;33;20000;-84
2022/06/19 04:46:46;;;;;;;;;;;;;;;21.96;51.19;100137.72;4313076;33;19988;-84
2022/06/19 04:49:14;;;;;;;;;;;;;;;22.03;51.25;100145.41;4311743;33;19999;-84
2022/06/19 04:51:42;;;;;;;;;;;;;;;22.11;51.12;100139.91;4311096;33;20251;-84
2022/06/19 04:54:09;;;;;;;;;;;;;;;22.17;51.08;100152.97;4344330;32;20090;-84
2022/06/19 04:56:37;;;;;;;;;;;;;;;22.25;50.84;100148.38;4334175;33;20000;-84
2022/06/19 04:59:04;;;;;;;;;;;;;;;22.33;50.09;100142.88;4337307;32;20505;-83
2022/06/19 05:01:32;;;;;;;;;;;;;;;22.38;49.73;100148.91;4316264;33;20453;-84
2022/06/19 05:04:00;;;;;;;;;;;;;;;22.44;49.86;100151.38;4311161;33;19972;-83
2022/06/19 05:06:27;;;;;;;;;;;;;;;22.41;50.43;100158.53;4315969;33;20003;-83
2022/06/19 05:08:54;;;;;;;;;;;;;;;22.46;50.38;100159.25;4348293;32;19991;-82
2022/06/19 05:11:22;;;;;;;;;;;;;;;22.54;49.89;100161.69;4316396;33;19976;-82
2022/06/19 05:13:49;;;;;;;;;;;;;;;22.57;50.14;100162.47;4325958;33;20311;-82
2022/06/19 05:16:17;;;;;;;;;;;;;;;22.62;50.15;100159.69;4321897;33;20244;-82
2022/06/19 05:18:45;;;;;;;;;;;;;;;22.68;50.13;100160.38;4340444;32;20334;-81
2022/06/19 05:21:19;;;;;;;;;;;;;;;22.74;49.66;100165.47;4311089;32;20002;-82
2022/06/19 05:23:47;;;;;;;;;;;;;;;22.82;49.64;100161.78;4328001;32;20403;-82
2022/06/19 05:26:25;;;;;;;;;;;;;;;22.80;49.65;100161.78;4348556;32;20326;-82
2022/06/19 05:28:52;;;;;;;;;;;;;;;22.90;49.32;100162.37;4333745;33;19979;-82
2022/06/19 05:31:19;;;;;;;;;;;;;;;22.95;49.09;100157.88;4348760;32;20002;-82
2022/06/19 05:33:47;;;;;;;;;;;;;;;22.96;48.98;100164.88;4325407;33;19999;-82
2022/06/19 05:36:15;;;;;;;;;;;;;;;23.19;48.32;100165.03;4325380;33;19976;-82
2022/06/19 05:38:42;;;;;;;;;;;;;;;23.19;48.67;100162.41;4325302;33;20364;-82
2022/06/19 05:41:09;;;;;;;;;;;;;;;23.26;48.67;100156.94;4325413;33;20052;-82
2022/06/19 05:43:36;;;;;;;;;;;;;;;23.34;48.76;100170.78;4326899;33;19992;-83
2022/06/19 05:46:07;;;;;;;;;;;;;;;23.44;48.32;100166.94;4329796;33;19999;-83
2022/06/19 05:48:36;;;;;;;;;;;;;;;23.30;48.23;100163.88;4355657;32;20043;-84
2022/06/19 05:51:04;;;;;;;;;;;;;;;23.35;48.43;100161.94;4353048;32;19987;-83
2022/06/19 05:53:32;;;;;;;;;;;;;;;23.54;48.22;100163.06;4335105;32;20030;-83
2022/06/19 05:55:59;;;;;;;;;;;;;;;23.33;48.17;100163.78;4339496;32;20079;-82
2022/06/19 05:58:26;;;;;;;;;;;;;;;23.65;47.71;100160.97;4335458;32;19972;-82
2022/06/19 06:00:53;;;;;;;;;;;;;;;23.77;47.58;100172.06;4342075;33;19999;-85
2022/06/19 06:03:21;;;;;;;;;;;;;;;23.92;48.36;100162.78;4341903;33;20397;-85
2022/06/19 06:05:48;;;;;;;;;;;;;;;23.92;48.66;100168.91;4336686;32;20091;-88
2022/06/19 06:08:15;;;;;;;;;;;;;;;23.99;47.62;100162.50;4350122;32;20006;-82
2022/06/19 06:10:49;;;;;;;;;;;;;;;24.07;48.28;100152.53;4321924;32;20007;-82
2022/06/19 06:13:16;;;;;;;;;;;;;;;24.30;47.80;100153.50;4306651;33;20003;-82
2022/06/19 06:15:46;;;;;;;;;;;;;;;24.75;46.00;100164.25;4283380;33;20324;-82
2022/06/19 06:18:14;;;;;;;;;;;;;;;25.17;45.18;100152.09;4285405;33;20016;-83
2022/06/19 06:20:40;;;;;;;;;;;;;;;25.44;45.13;100153.66;4290407;33;20403;-82
2022/06/19 06:23:07;;;;;;;;;;;;;;;25.78;43.81;100157.56;4283501;33;20006;-82
2022/06/19 06:25:35;;;;;;;;;;;;;;;26.07;42.82;100160.81;4286018;33;20489;-82
2022/06/19 06:28:02;;;;;;;;;;;;;;;26.41;42.58;100161.09;4292276;33;20056;-82
2022/06/19 06:30:29;;;;;;;;;;;;;;;26.73;41.37;100164.12;4288162;33;20008;-82
2022/06/19 06:33:03;;;;;;;;;;;;;;;27.12;41.23;100165.84;4285584;33;20338;-82
2022/06/19 06:35:30;;;;;;;;;;;;;;;27.42;40.65;100166.25;4291429;33;20004;-85
2022/06/19 06:37:59;;;;;;;;;;;;;;;27.70;39.26;100165.75;4289526;33;19989;-82
2022/06/19 06:40:26;;;;;;;;;;;;;;;28.02;38.68;100153.50;4289374;33;19984;-82
2022/06/19 06:42:53;;;;;;;;;;;;;;;28.17;37.85;100159.84;4297707;33;20035;-86
2022/06/19 06:45:21;;;;;;;;;;;;;;;28.28;38.78;100162.81;4297520;33;19999;-86
2022/06/19 06:47:48;;;;;;;;;;;;;;;28.54;37.88;100163.28;4291450;33;19988;-83
2022/06/19 06:50:15;;;;;;;;;;;;;;;28.74;37.39;100156.88;4284326;33;20370;-84
2022/06/19 06:52:42;;;;;;;;;;;;;;;28.80;37.95;100163.69;4306492;33;20461;-83
2022/06/19 06:55:09;;;;;;;;;;;;;;;28.82;36.41;100167.13;4289820;33;19996;-83
2022/06/19 06:57:36;;;;;;;;;;;;;;;28.46;33.89;100170.78;4282987;33;20007;-81
2022/06/19 07:00:03;;;;;;;;;;;;;;;29.04;32.73;100162.37;4298731;33;19991;-83
2022/06/19 07:02:30;;;;;;;;;;;;;;;28.54;35.14;100165.94;4335317;32;20014;-84
2022/06/19 07:04:57;;;;;;;;;;;;;;;28.85;33.77;100166.97;4328683;32;19997;-83
2022/06/19 07:07:24;;;;;;;;;;;;;;;29.38;34.25;100169.31;4333030;33;19988;-81
2022/06/19 07:09:51;;;;;;;;;;;;;;;29.22;33.88;100170.28;4326827;33;19979;-81
2022/06/19 07:12:18;;;;;;;;;;;;;;;29.57;30.19;100169.13;4326778;33;19976;-81
2022/06/19 07:14:45;;;;;;;;;;;;;;;29.52;32.30;100167.69;4328654;33;20066;-81
2022/06/19 07:17:12;;;;;;;;;;;;;;;29.39;32.63;100156.88;4333118;33;19994;-80
2022/06/19 07:19:40;;;;;;;;;;;;;;;29.20;33.60;100152.56;4326877;33;19988;-81
2022/06/19 07:22:08;;;;;;;;;;;;;;;29.99;32.09;100156.91;4328729;32;20001;-82
2022/06/19 07:24:35;;;;;;;;;;;;;;;30.21;30.38;100155.69;4355741;32;19976;-81
2022/06/19 07:27:02;;;;;;;;;;;;;;;30.14;30.58;100165.84;4327343;33;20022;-83
2022/06/19 07:29:29;;;;;;;;;;;;;;;30.28;32.88;100163.25;4334622;32;19999;-83
2022/06/19 07:31:56;;;;;;;;;;;;;;;30.63;29.56;100157.50;4352138;32;20655;-83
2022/06/19 07:34:23;;;;;;;;;;;;;;;30.84;29.08;100155.34;4324954;32;20657;-83
2022/06/19 07:36:55;;;;;;;;;;;;;;;30.66;29.50;100164.50;4332513;32;19998;-82
2022/06/19 07:39:23;;;;;;;;;;;;;;;30.79;28.47;100152.09;4346260;32;19999;-83
2022/06/19 07:41:49;;;;;;;;;;;;;;;30.77;30.92;100157.56;4319143;33;19972;-83
2022/06/19 07:44:16;;;;;;;;;;;;;;;31.08;29.19;100157.41;4317579;32;20258;-83
2022/06/19 07:52:15;;;;;;;;;;;;;;;30.64;29.04;100153.06;4304214;32;20027;-83
2022/06/19 07:54:42;;;;;;;;;;;;;;;30.68;31.69;100150.09;4326231;33;20043;-84
2022/06/19 07:57:08;;;;;;;;;;;;;;;31.25;29.22;100142.00;4326628;33;19998;-84
2022/06/19 07:59:35;;;;;;;;;;;;;;;31.29;29.59;100140.00;4321849;33;20491;-84
2022/06/19 08:02:02;;;;;;;;;;;;;;;31.22;27.58;100144.88;4312414;33;20477;-84
2022/06/19 08:04:34;;;;;;;;;;;;;;;30.75;29.12;100137.19;4318696;33;19997;-84
2022/06/19 08:07:10;;;;;;;;;;;;;;;31.20;27.30;100129.88;4312348;33;20032;-83
2022/06/19 08:09:37;;;;;;;;;;;;;;;31.49;28.37;100130.66;4311643;33;20031;-85
2022/06/19 08:12:04;;;;;;;;;;;;;;;31.26;29.05;100124.13;4340375;32;19980;-84
2022/06/19 08:14:31;;;;;;;;;;;;;;;31.30;28.96;100125.66;4315728;33;20035;-82
2022/06/19 08:16:58;;;;;;;;;;;;;;;31.23;28.18;100122.50;4317171;33;19998;-83
2022/06/19 08:19:25;;;;;;;;;;;;;;;31.66;27.54;100116.19;4316050;32;20015;-84
2022/06/19 08:21:51;;;;;;;;;;;;;;;31.52;30.55;100125.13;4325762;33;19984;-83
2022/06/19 08:24:18;;;;;;;;;;;;;;;31.73;28.04;100114.81;4326352;33;20730;-84
2022/06/19 08:26:45;;;;;;;;;;;;;;;31.54;29.25;100117.00;4320535;33;20022;-84
2022/06/19 08:29:12;;;;;;;;;;;;;;;31.60;26.03;100116.59;4319643;33;19981;-83
2022/06/19 08:31:39;;;;;;;;;;;;;;;31.89;27.64;100106.62;4311783;33;20003;-83
2022/06/19 08:34:06;;;;;;;;;;;;;;;31.81;27.98;100101.75;4311346;33;20702;-83
2022/06/19 08:36:33;;;;;;;;;;;;;;;32.20;28.23;100105.37;4327564;32;20015;-84
2022/06/19 08:39:01;;;;;;;;;;;;;;;32.02;27.85;100106.62;4310352;33;19998;-84
2022/06/19 08:41:40;;;;;;;;;;;;;;;32.13;25.08;100099.59;4310708;33;20032;-83
2022/06/19 08:44:11;;;;;;;;;;;;;;;32.63;24.50;100107.72;4312999;33;19980;-83
2022/06/19 08:46:57;;;;;;;;;;;;;;;31.80;27.06;100102.72;4328800;33;20014;-82
2022/06/19 08:49:43;;;;;;;;;;;;;;;31.54;26.82;100098.28;4316257;33;20002;-83
2022/06/19 08:52:22;;;;;;;;;;;;;;;31.71;28.05;100114.03;4320293;33;19985;-84
2022/06/19 08:55:01;;;;;;;;;;;;;;;32.31;28.26;100113.50;4311405;33;20728;-82
2022/06/19 08:57:27;;;;;;;;;;;;;;;31.93;26.25;100108.13;4312895;33;20055;-82
2022/06/19 08:59:58;;;;;;;;;;;;;;;31.52;25.40;100102.84;4317410;32;20369;-83
2022/06/19 09:02:36;;;;;;;;;;;;;;;31.74;27.79;100108.47;4311775;33;20279;-84
2022/06/19 09:07:54;;;;;;;;;;;;;;;31.98;27.92;100105.13;4330686;33;19997;-82
2022/06/19 09:10:21;;;;;;;;;;;;;;;31.79;27.77;100101.00;4324942;33;19998;-83
2022/06/19 09:12:57;;;;;;;;;;;;;;;31.92;29.15;100101.91;4319108;33;20015;-84
2022/06/19 09:15:36;;;;;;;;;;;;;;;32.17;27.25;100094.87;4311555;33;20197;-82
2022/06/19 09:18:04;;;;;;;;;;;;;;;32.41;26.59;100095.78;4310414;33;20051;-83
2022/06/19 09:20:44;;;;;;;;;;;;;;;32.13;25.93;100093.34;4318909;33;20035;-83
2022/06/19 09:23:31;;;;;;;;;;;;;;;32.25;26.99;100095.16;4329969;33;19999;-83
2022/06/19 09:26:17;;;;;;;;;;;;;;;32.28;27.80;100097.63;4312621;33;20271;-83
2022/06/19 09:28:46;;;;;;;;;;;;;;;32.07;29.33;100096.44;4319576;33;20023;-84
2022/06/19 09:31:34;;;;;;;;;;;;;;;32.01;28.35;100083.50;4321565;33;20035;-84
2022/06/19 09:34:03;;;;;;;;;;;;;;;31.85;27.96;100084.53;4317519;33;19988;-83
2022/06/19 09:36:50;;;;;;;;;;;;;;;32.24;26.27;100082.75;4310744;33;19995;-83
2022/06/19 09:39:26;;;;;;;;;;;;;;;32.57;26.51;100071.47;4315915;33;20330;-84
2022/06/19 09:42:12;;;;;;;;;;;;;;;32.51;24.70;100076.41;4325686;33;20539;-84
2022/06/19 09:44:40;;;;;;;;;;;;;;;32.58;25.73;100073.19;4320615;33;20051;-84
2022/06/19 09:47:11;;;;;;;;;;;;;;;32.83;26.28;100083.00;4324211;33;19988;-83
2022/06/19 09:49:43;;;;;;;;;;;;;;;32.62;25.37;100076.53;4313898;33;20035;-83
2022/06/19 09:52:14;;;;;;;;;;;;;;;32.38;25.33;100071.91;4315197;33;19980;-84
2022/06/19 09:54:43;;;;;;;;;;;;;;;32.39;26.25;100073.63;4313048;33;20018;-85
2022/06/19 09:57:15;;;;;;;;;;;;;;;32.52;27.77;100067.44;4325949;33;20007;-84
2022/06/19 09:59:50;;;;;;;;;;;;;;;32.04;25.51;100064.53;4311118;32;20425;-84
2022/06/19 10:02:26;;;;;;;;;;;;;;;32.44;26.61;100051.03;4342683;32;20360;-83
2022/06/19 10:04:58;;;;;;;;;;;;;;;32.32;26.46;100056.25;4316021;32;19984;-83
2022/06/19 10:07:33;;;;;;;;;;;;;;;32.24;25.90;100065.81;4217975;32;10000953;-83
2022/06/19 10:10:01;;;;;;;;;;;;;;;32.11;26.51;100058.63;4320539;33;20023;-82
2022/06/19 10:12:29;;;;;;;;;;;;;;;32.06;24.72;100044.69;4325743;33;19976;-83
2022/06/19 10:14:59;;;;;;;;;;;;;;;32.20;26.82;100043.75;4297288;33;20314;-83
2022/06/19 10:17:28;;;;;;;;;;;;;;;32.04;25.54;100051.16;4327876;32;19996;-82
2022/06/19 10:20:01;;;;;;;;;;;;;;;32.50;23.39;100042.56;4327180;32;20333;-84
2022/06/19 10:22:37;;;;;;;;;;;;;;;32.41;23.99;100039.53;4333794;33;20636;-83
2022/06/19 10:25:04;;;;;;;;;;;;;;;32.82;24.08;100033.00;4011946;32;10008372;-83
2022/06/19 10:27:37;;;;;;;;;;;;;;;32.61;26.35;100034.56;4335054;32;20043;-83
2022/06/19 10:30:13;;;;;;;;;;;;;;;32.96;26.47;100033.81;4333317;32;19996;-83
2022/06/19 10:32:46;;;;;;;;;;;;;;;32.64;25.57;100026.31;4326966;33;20022;-83
2022/06/19 10:35:15;;;;;;;;;;;;;;;32.33;25.75;100025.84;4335290;33;19980;-84
2022/06/19 10:40:55;;;;;;;;;;;;;;;31.71;25.76;100017.66;4328715;33;20059;-83
2022/06/19 10:43:46;;;;;;;;;;;;;;;32.23;26.09;100016.75;4331391;32;19987;-83
2022/06/19 10:46:13;;;;;;;;;;;;;;;32.55;23.98;100010.94;4350560;32;20314;-83
2022/06/19 10:48:44;;;;;;;;;;;;;;;32.12;26.37;100011.28;4357837;32;19980;-82
2022/06/19 10:51:17;;;;;;;;;;;;;;;31.67;25.61;100010.81;4365425;32;20289;-83
2022/06/19 10:54:00;;;;;;;;;;;;;;;32.04;25.07;100000.28;4341595;32;19991;-83
2022/06/19 10:56:34;;;;;;;;;;;;;;;32.19;25.70;99991.13;4365209;32;19976;-82
2022/06/19 10:59:01;;;;;;;;;;;;;;;32.38;25.37;99991.50;4295441;32;20047;-82
2022/06/19 11:04:15;;;;;;;;;;;;;;;31.83;24.57;99999.91;4350036;32;19999;-83
2022/06/19 11:07:02;;;;;;;;;;;;;;;31.61;26.01;99995.19;4356527;32;19980;-83
2022/06/19 11:09:35;;;;;;;;;;;;;;;32.54;25.33;99985.06;4357206;32;20009;-83
2022/06/19 11:12:21;;;;;;;;;;;;;;;32.93;23.76;99980.41;4328541;32;20022;-83
2022/06/19 11:14:50;;;;;;;;;;;;;;;33.00;23.41;99981.72;4341933;32;20356;-82
2022/06/19 11:17:28;;;;;;;;;;;;;;;33.30;23.45;99979.38;4341397;32;20306;-82
2022/06/19 11:19:55;;;;;;;;;;;;;;;33.41;23.50;99983.03;4336567;32;19988;-83
2022/06/19 11:22:31;;;;;;;;;;;;;;;33.69;24.36;99988.03;4357156;32;20031;-82
2022/06/19 11:25:13;;;;;;;;;;;;;;;33.10;24.13;99988.09;4356168;32;20007;-82
2022/06/19 11:27:40;;;;;;;;;;;;;;;33.26;24.71;99987.78;4356079;32;20000;-82
2022/06/19 11:30:07;;;;;;;;;;;;;;;33.63;22.48;99969.69;4340849;32;20004;-82
2022/06/19 11:32:42;;;;;;;;;;;;;;;33.64;23.93;99960.69;4350702;32;19991;-82
2022/06/19 11:35:09;;;;;;;;;;;;;;;33.22;24.14;99954.97;4346538;32;20414;-82
2022/06/19 11:37:39;;;;;;;;;;;;;;;33.16;24.65;99959.94;4364659;32;20027;-83
2022/06/19 11:40:14;;;;;;;;;;;;;;;33.18;22.97;99950.78;4363316;32;20001;-82
2022/06/19 11:42:46;;;;;;;;;;;;;;;33.04;22.09;99961.72;4341477;32;20027;-83
2022/06/19 11:45:12;;;;;;;;;;;;;;;32.66;23.51;99960.03;4339950;32;19991;-82
2022/06/19 11:47:39;;;;;;;;;;;;;;;32.52;24.17;99960.22;4357822;32;19991;-83
2022/06/19 11:50:29;;;;;;;;;;;;;;;32.24;25.06;99956.84;4326623;33;19992;-83
2022/06/19 11:52:57;;;;;;;;;;;;;;;32.46;23.87;99955.31;4329690;32;20063;-83
2022/06/19 11:55:27;;;;;;;;;;;;;;;32.78;25.41;99951.09;4340863;32;20021;-83
2022/06/19 11:58:20;;;;;;;;;;;;;;;32.30;23.85;99960.91;4344097;32;19998;-82
2022/06/19 12:01:13;;;;;;;;;;;;;;;32.39;25.30;99944.16;4328471;32;19975;-83
2022/06/19 12:03:47;;;;;;;;;;;;;;;32.15;23.73;99946.78;4327206;32;20392;-83
2022/06/19 12:06:15;;;;;;;;;;;;;;;32.77;22.79;99941.34;4355892;32;19987;-84
2022/06/19 12:08:58;;;;;;;;;;;;;;;32.58;25.12;99957.06;4362747;32;20006;-83
2022/06/19 12:11:37;;;;;;;;;;;;;;;32.63;23.95;99936.16;4331315;33;20369;-83
2022/06/19 12:14:05;;;;;;;;;;;;;;;32.11;24.23;99929.22;4364072;32;19992;-84
2022/06/19 12:16:32;;;;;;;;;;;;;;;32.67;24.97;99931.41;4359593;32;20097;-84
2022/06/19 12:19:12;;;;;;;;;;;;;;;33.13;22.77;99927.97;4346447;32;19972;-83
2022/06/19 12:22:12;;;;;;;;;;;;;;;32.67;22.31;99926.91;4349081;32;20072;-83
2022/06/19 12:24:41;;;;;;;;;;;;;;;33.24;24.45;99926.16;4342393;32;20030;-82
2022/06/19 12:27:10;;;;;;;;;;;;;;;32.68;23.55;99917.91;4352171;32;19991;-83
2022/06/19 12:29:42;;;;;;;;;;;;;;;32.07;24.30;99925.03;4350761;32;20029;-83
2022/06/19 12:32:32;;;;;;;;;;;;;;;32.83;22.57;99911.41;4355491;32;20038;-82
2022/06/19 12:35:01;;;;;;;;;;;;;;;32.84;21.86;99905.06;4338656;32;20388;-83
2022/06/19 12:37:30;;;;;;;;;;;;;;;32.55;24.00;99920.66;4353176;32;19984;-82
2022/06/19 12:39:56;;;;;;;;;;;;;;;32.87;22.33;99907.50;4360872;32;19988;-82
2022/06/19 12:42:23;;;;;;;;;;;;;;;32.42;22.15;99906.41;4362741;32;19987;-81
2022/06/19 12:45:10;;;;;;;;;;;;;;;32.24;24.40;99900.56;4333636;32;20389;-82
2022/06/19 12:47:56;;;;;;;;;;;;;;;32.85;23.41;99904.06;4331201;32;19999;-81
2022/06/19 12:50:43;;;;;;;;;;;;;;;32.46;23.89;99896.34;4338825;32;20507;-83
2022/06/19 12:53:10;;;;;;;;;;;;;;;32.74;24.73;99889.75;4338639;32;20340;-82
2022/06/19 12:55:39;;;;;;;;;;;;;;;32.45;22.84;99886.59;4331746;32;19983;-83
2022/06/19 12:58:09;;;;;;;;;;;;;;;32.55;23.80;99890.31;4327450;32;19984;-83
2022/06/19 13:00:50;;;;;;;;;;;;;;;33.11;22.85;99887.84;4330846;32;20326;-83
2022/06/19 13:03:24;;;;;;;;;;;;;;;32.59;22.01;99881.91;4351649;32;20002;-83
2022/06/19 13:06:10;;;;;;;;;;;;;;;32.89;22.29;99884.09;4350226;32;21051;-83
2022/06/19 13:08:49;;;;;;;;;;;;;;;32.61;21.58;99884.47;4328858;32;20003;-82